createdAt,value
2023-04-17T00:01:18.584Z,18.85
2023-04-17T00:03:47.446Z,18.78
2023-04-17T00:06:16.453Z,18.73
2023-04-17T00:08:44.992Z,18.92
2023-04-17T00:11:12.952Z,19.04
2023-04-17T00:13:44.161Z,19.12
2023-04-17T00:16:13.678Z,19.11
2023-04-17T00:18:42.883Z,19.27
2023-04-17T00:21:11.059Z,19.32
2023-04-17T00:23:39.649Z,19.38
2023-04-17T00:26:07.648Z,19.46
2023-04-17T00:28:35.638Z,19.45
2023-04-17T00:31:04.604Z,19.56
2023-04-17T00:33:32.839Z,19.42
2023-04-17T00:36:00.840Z,19.23
2023-04-17T00:38:29.418Z,19.41
2023-04-17T00:40:57.412Z,19.64
2023-04-17T00:43:25.496Z,20.02
2023-04-17T00:45:54.028Z,19.94
2023-04-17T00:48:24.208Z,19.81
2023-04-17T00:50:52.178Z,19.80
2023-04-17T00:53:20.555Z,20.02
2023-04-17T00:55:48.598Z,19.92
2023-04-17T00:58:16.880Z,19.79
2023-04-17T01:00:45.435Z,19.74
2023-04-17T01:03:14.527Z,19.84
2023-04-17T01:05:44.754Z,19.79
2023-04-17T01:08:12.668Z,19.88
2023-04-17T01:10:40.821Z,19.90
2023-04-17T01:13:09.574Z,19.76
2023-04-17T01:15:37.958Z,19.95
2023-04-17T01:18:06.844Z,19.39
2023-04-17T01:20:34.928Z,19.42
2023-04-17T01:23:02.919Z,19.40
2023-04-17T01:25:31.409Z,19.53
2023-04-17T01:27:59.319Z,19.65
2023-04-17T01:30:29.244Z,19.66
2023-04-17T01:33:03.688Z,19.69
2023-04-17T01:35:31.663Z,19.56
2023-04-17T01:37:59.983Z,19.75
2023-04-17T01:40:28.752Z,19.77
2023-04-17T01:42:57.449Z,19.73
2023-04-17T01:45:25.344Z,19.79
2023-04-17T01:47:53.984Z,19.71
2023-04-17T01:50:22.370Z,19.64
2023-04-17T01:52:50.708Z,19.76
2023-04-17T01:55:18.700Z,19.91
2023-04-17T01:57:47.598Z,19.96
2023-04-17T02:00:15.943Z,19.97
2023-04-17T02:02:44.367Z,20.01
2023-04-17T02:05:12.420Z,20.15
2023-04-17T02:07:40.855Z,20.10
2023-04-17T02:10:09.609Z,19.91
2023-04-17T02:12:38.248Z,20.00
2023-04-17T02:15:07.148Z,20.28
2023-04-17T02:17:35.682Z,20.53
2023-04-17T02:20:06.949Z,20.35
2023-04-17T02:22:35.037Z,20.11
2023-04-17T02:25:02.962Z,20.18
2023-04-17T02:27:31.252Z,20.13
2023-04-17T02:29:59.154Z,20.28
2023-04-17T02:32:27.145Z,20.41
2023-04-17T02:34:56.251Z,20.67
2023-04-17T02:37:24.206Z,20.72
2023-04-17T02:39:53.996Z,20.69
2023-04-17T02:42:21.900Z,20.44
2023-04-17T02:44:49.799Z,20.02
2023-04-17T02:47:17.815Z,20.27
2023-04-17T02:49:45.908Z,20.09
2023-04-17T02:52:14.081Z,20.17
2023-04-17T02:54:42.253Z,19.93
2023-04-17T02:57:11.000Z,19.54
2023-04-17T02:59:39.051Z,19.78
2023-04-17T03:02:07.070Z,19.96
2023-04-17T03:04:38.760Z,19.81
2023-04-17T03:07:10.537Z,19.80
2023-04-17T03:09:39.839Z,19.88
2023-04-17T03:12:07.907Z,19.83
2023-04-17T03:14:36.011Z,20.14
2023-04-17T03:17:03.870Z,20.15
2023-04-17T03:19:31.936Z,20.29
2023-04-17T03:22:01.740Z,20.40
2023-04-17T03:24:31.716Z,20.70
2023-04-17T03:27:01.133Z,20.64
2023-04-17T03:29:31.430Z,20.38
2023-04-17T03:31:59.355Z,20.55
2023-04-17T03:34:29.131Z,20.60
2023-04-17T03:36:59.372Z,20.65
2023-04-17T03:39:27.409Z,20.38
2023-04-17T03:41:56.059Z,20.58
2023-04-17T03:44:24.050Z,20.73
2023-04-17T03:46:51.946Z,20.60
2023-04-17T03:49:20.088Z,20.73
2023-04-17T03:51:49.988Z,20.71
2023-04-17T03:54:19.604Z,20.58
2023-04-17T03:56:47.707Z,20.48
2023-04-17T03:59:15.833Z,20.44
2023-04-17T04:01:47.407Z,20.51
2023-04-17T04:04:19.355Z,20.66
2023-04-17T04:06:49.503Z,20.67
2023-04-17T04:09:20.356Z,20.86
2023-04-17T04:11:48.341Z,20.81
2023-04-17T04:14:16.784Z,20.54
2023-04-17T04:16:47.131Z,20.82
2023-04-17T04:19:16.327Z,20.98
2023-04-17T04:21:45.152Z,20.93
2023-04-17T04:24:14.486Z,21.00
2023-04-17T04:26:43.483Z,20.79
2023-04-17T04:29:13.964Z,20.74
2023-04-17T04:31:51.115Z,20.54
2023-04-17T04:34:21.771Z,20.93
2023-04-17T04:36:52.707Z,21.18
2023-04-17T04:39:37.978Z,20.97
2023-04-17T04:42:10.086Z,20.83
2023-04-17T04:45:07.906Z,20.89
2023-04-17T04:47:36.937Z,20.97
2023-04-17T04:50:05.776Z,20.69
2023-04-17T04:52:33.967Z,20.95
2023-04-17T04:55:05.905Z,21.11
2023-04-17T04:57:34.254Z,21.14
2023-04-17T05:00:06.433Z,21.23
2023-04-17T05:02:40.135Z,21.21
2023-04-17T05:05:11.166Z,21.20
2023-04-17T05:07:40.409Z,21.19
2023-04-17T05:10:10.980Z,21.21
2023-04-17T05:12:42.489Z,21.26
2023-04-17T05:15:11.392Z,21.44
2023-04-17T05:17:40.156Z,21.33
2023-04-17T05:20:18.937Z,21.10
2023-04-17T05:22:52.388Z,21.60
2023-04-17T05:25:20.835Z,21.78
2023-04-17T05:27:48.830Z,21.73
2023-04-17T05:30:17.834Z,21.71
2023-04-17T05:32:48.647Z,21.95
2023-04-17T05:35:42.573Z,22.03
2023-04-17T05:38:10.782Z,22.02
2023-04-17T05:40:39.025Z,22.00
2023-04-17T05:43:08.693Z,22.18
2023-04-17T05:45:37.119Z,22.39
2023-04-17T05:48:08.423Z,22.58
2023-04-17T05:50:37.539Z,22.50
2023-04-17T05:53:06.089Z,22.49
2023-04-17T05:55:37.736Z,22.53
2023-04-17T05:58:16.851Z,22.46
2023-04-17T06:00:52.554Z,22.33
2023-04-17T06:03:21.355Z,22.42
2023-04-17T06:05:53.251Z,22.63
2023-04-17T06:08:23.757Z,22.52
2023-04-17T06:10:52.628Z,22.62
2023-04-17T06:13:21.984Z,22.47
2023-04-17T06:15:51.588Z,22.61
2023-04-17T06:18:19.629Z,22.73
2023-04-17T06:20:47.686Z,22.82
2023-04-17T06:23:16.013Z,23.04
2023-04-17T06:25:44.338Z,23.17
2023-04-17T06:28:13.508Z,23.66
2023-04-17T06:30:41.516Z,24.08
2023-04-17T06:33:10.071Z,24.02
2023-04-17T06:35:38.369Z,24.03
2023-04-17T06:38:22.187Z,23.76
2023-04-17T06:40:52.153Z,23.82
2023-04-17T06:43:20.847Z,23.68
2023-04-17T06:45:48.989Z,23.92
2023-04-17T06:48:17.555Z,23.89
2023-04-17T06:50:45.906Z,24.16
2023-04-17T06:53:14.265Z,24.19
2023-04-17T06:55:42.221Z,24.27
2023-04-17T06:58:10.237Z,24.37
2023-04-17T07:00:38.180Z,24.91
2023-04-17T07:03:06.409Z,24.83
2023-04-17T07:05:35.751Z,24.68
2023-04-17T07:08:03.796Z,25.04
2023-04-17T07:10:31.970Z,25.18
2023-04-17T07:13:00.296Z,25.00
2023-04-17T07:15:31.701Z,25.03
2023-04-17T07:18:00.088Z,25.18
2023-04-17T07:20:28.292Z,25.36
2023-04-17T07:22:56.775Z,25.28
2023-04-17T07:25:24.922Z,25.11
2023-04-17T07:27:53.702Z,24.97
2023-04-17T07:30:21.646Z,24.59
2023-04-17T07:32:49.655Z,24.91
2023-04-17T07:35:17.663Z,25.10
2023-04-17T07:37:45.692Z,25.03
2023-04-17T07:40:14.730Z,24.93
2023-04-17T07:42:42.666Z,24.49
2023-04-17T07:45:11.647Z,24.54
2023-04-17T07:47:39.600Z,24.99
2023-04-17T07:50:07.964Z,25.09
2023-04-17T07:52:36.082Z,25.03
2023-04-17T07:55:04.373Z,25.13
2023-04-17T07:57:33.065Z,25.16
2023-04-17T08:00:01.119Z,24.95
2023-04-17T08:02:29.562Z,25.18
2023-04-17T08:04:58.467Z,25.27
2023-04-17T08:07:27.181Z,25.44
2023-04-17T08:09:55.600Z,25.46
2023-04-17T08:12:23.586Z,25.63
2023-04-17T08:14:51.671Z,25.81
2023-04-17T08:17:23.000Z,25.72
2023-04-17T08:19:53.718Z,25.76
2023-04-17T08:22:24.254Z,25.93
2023-04-17T08:24:57.509Z,25.79
2023-04-17T08:27:25.834Z,26.04
2023-04-17T08:29:54.011Z,26.23
2023-04-17T08:32:22.274Z,26.87
2023-04-17T08:34:50.251Z,27.04
2023-04-17T08:37:18.151Z,27.63
2023-04-17T08:39:46.098Z,28.00
2023-04-17T08:42:18.401Z,27.75
2023-04-17T08:44:47.061Z,27.88
2023-04-17T08:47:20.162Z,28.00
2023-04-17T08:49:50.601Z,28.21
2023-04-17T08:52:18.727Z,27.99
2023-04-17T08:54:48.884Z,28.33
2023-04-17T08:57:18.726Z,28.91
2023-04-17T08:59:47.030Z,29.00
2023-04-17T09:02:15.300Z,28.63
2023-04-17T09:04:44.632Z,28.32
2023-04-17T09:07:13.601Z,27.96
2023-04-17T09:09:49.156Z,27.56
2023-04-17T09:12:18.378Z,27.24
2023-04-17T09:14:46.405Z,26.73
2023-04-17T09:17:17.286Z,26.93
2023-04-17T09:20:08.969Z,26.65
2023-04-17T09:22:37.717Z,26.41
2023-04-17T09:25:19.534Z,26.67
2023-04-17T09:27:47.582Z,26.52
2023-04-17T09:30:15.821Z,26.26
2023-04-17T09:32:44.102Z,25.98
2023-04-17T09:35:27.816Z,26.06
2023-04-17T09:37:58.854Z,26.00
2023-04-17T09:40:28.709Z,26.15
2023-04-17T09:43:09.451Z,26.44
2023-04-17T09:45:41.798Z,26.13
2023-04-17T09:48:12.278Z,26.39
2023-04-17T09:50:40.308Z,26.68
2023-04-17T09:53:08.355Z,26.99
2023-04-17T09:55:38.155Z,26.81
2023-04-17T09:58:07.559Z,26.86
2023-04-17T10:00:36.899Z,26.93
2023-04-17T10:03:05.110Z,26.78
2023-04-17T10:05:33.392Z,26.70
2023-04-17T10:08:01.508Z,26.72
2023-04-17T10:10:33.962Z,27.02
2023-04-17T10:13:03.761Z,26.89
2023-04-17T10:15:31.777Z,27.07
2023-04-17T10:18:20.650Z,27.47
2023-04-17T10:20:49.649Z,27.57
2023-04-17T10:23:26.420Z,28.12
2023-04-17T10:26:25.617Z,28.61
2023-04-17T10:28:54.384Z,28.88
2023-04-17T10:31:23.724Z,29.14
2023-04-17T10:33:55.136Z,29.22
2023-04-17T10:36:38.248Z,29.90
2023-04-17T10:39:13.170Z,30.09
2023-04-17T10:42:02.062Z,30.45
2023-04-17T10:44:34.568Z,30.32
2023-04-17T10:47:10.036Z,29.89
2023-04-17T10:49:52.098Z,29.97
2023-04-17T10:52:41.870Z,29.79
2023-04-17T10:55:16.081Z,29.78
2023-04-17T10:57:56.488Z,30.32
2023-04-17T11:00:38.126Z,30.61
2023-04-17T11:03:06.721Z,30.23
2023-04-17T11:05:36.039Z,30.03
2023-04-17T11:08:04.874Z,30.01
2023-04-17T11:10:35.772Z,30.03
2023-04-17T11:13:03.757Z,30.13
2023-04-17T11:15:34.441Z,30.40
2023-04-17T11:18:03.082Z,30.44
2023-04-17T11:20:32.366Z,30.04
2023-04-17T11:23:04.172Z,30.05
2023-04-17T11:25:34.392Z,30.26
2023-04-17T11:28:05.335Z,30.51
2023-04-17T11:30:38.191Z,30.90
2023-04-17T11:33:08.038Z,31.30
2023-04-17T11:38:47.359Z,28.72
2023-04-17T11:41:15.751Z,30.24
2023-04-17T11:43:44.553Z,30.59
2023-04-17T11:46:12.502Z,30.45
2023-04-17T11:48:40.939Z,30.52
2023-04-17T11:51:09.166Z,30.00
2023-04-17T11:53:37.245Z,29.98
2023-04-17T11:56:18.362Z,30.06
2023-04-17T11:58:49.246Z,30.19
2023-04-17T12:01:18.075Z,30.48
2023-04-17T12:03:47.904Z,30.63
2023-04-17T12:06:16.330Z,30.60
2023-04-17T12:08:50.281Z,30.66
2023-04-17T12:11:32.752Z,30.99
2023-04-17T12:14:02.432Z,31.29
2023-04-17T12:16:31.560Z,31.09
2023-04-17T12:18:59.596Z,30.84
2023-04-17T12:21:27.517Z,30.60
2023-04-17T12:23:55.584Z,30.54
2023-04-17T12:26:25.285Z,30.45
2023-04-17T12:28:53.226Z,30.05
2023-04-17T12:31:21.189Z,30.03
2023-04-17T12:33:49.151Z,29.79
2023-04-17T12:36:17.067Z,29.44
2023-04-17T12:38:45.225Z,29.24
2023-04-17T12:41:13.147Z,29.54
2023-04-17T12:43:41.025Z,29.48
2023-04-17T12:46:08.984Z,29.43
2023-04-17T12:48:37.782Z,29.67
2023-04-17T12:51:06.095Z,29.77
2023-04-17T12:53:34.173Z,29.40
2023-04-17T12:56:02.175Z,29.15
2023-04-17T12:58:30.370Z,29.30
2023-04-17T13:00:58.260Z,29.20
2023-04-17T13:03:26.642Z,29.55
2023-04-17T13:05:54.754Z,29.53
2023-04-17T13:08:22.644Z,29.34
2023-04-17T13:10:51.608Z,29.34
2023-04-17T13:13:19.842Z,29.21
2023-04-17T13:15:48.573Z,29.16
2023-04-17T13:18:16.568Z,29.36
2023-04-17T13:20:44.680Z,29.30
2023-04-17T13:23:14.419Z,29.49
2023-04-17T13:25:42.480Z,29.36
2023-04-17T13:28:12.142Z,29.36
2023-04-17T13:30:40.131Z,29.19
2023-04-17T13:33:08.616Z,29.15
2023-04-17T13:35:36.822Z,29.32
2023-04-17T13:38:04.717Z,29.50
2023-04-17T13:40:32.628Z,29.37
2023-04-17T13:43:00.577Z,29.39
2023-04-17T13:45:28.610Z,29.43
2023-04-17T13:47:56.551Z,29.29
2023-04-17T13:50:24.524Z,29.33
2023-04-17T13:52:52.457Z,29.36
2023-04-17T13:55:20.635Z,29.78
2023-04-17T13:57:48.784Z,29.79
2023-04-17T14:00:18.431Z,29.89
2023-04-17T14:02:46.576Z,29.90
2023-04-17T14:05:14.739Z,29.55
2023-04-17T14:07:44.414Z,29.21
2023-04-17T14:10:12.455Z,29.24
2023-04-17T14:12:41.127Z,29.73
2023-04-17T14:15:09.673Z,29.93
2023-04-17T14:17:41.055Z,30.13
2023-04-17T14:20:10.799Z,30.08
2023-04-17T14:22:39.124Z,29.89
2023-04-17T14:25:07.326Z,29.68
2023-04-17T14:27:36.353Z,29.57
2023-04-17T14:30:04.851Z,29.89
2023-04-17T14:32:33.572Z,29.56
2023-04-17T14:35:01.763Z,29.29
2023-04-17T14:37:29.993Z,29.32
2023-04-17T14:39:57.931Z,29.62
2023-04-17T14:42:25.932Z,29.27
2023-04-17T14:44:53.839Z,29.13
2023-04-17T14:47:22.005Z,29.53
2023-04-17T14:49:49.992Z,29.09
2023-04-17T14:52:17.949Z,28.93
2023-04-17T14:54:45.831Z,28.89
2023-04-17T14:57:13.741Z,28.70
2023-04-17T14:59:41.839Z,28.77
2023-04-17T15:02:10.646Z,28.77
2023-04-17T15:04:39.051Z,28.72
2023-04-17T15:07:06.895Z,28.59
2023-04-17T15:09:34.914Z,28.56
2023-04-17T15:12:03.105Z,28.80
2023-04-17T15:14:31.627Z,28.80
2023-04-17T15:17:02.441Z,28.67
2023-04-17T15:19:30.635Z,28.84
2023-04-17T15:21:58.563Z,28.92
2023-04-17T15:24:26.688Z,28.95
2023-04-17T15:26:54.885Z,28.80
2023-04-17T15:29:23.197Z,28.74
2023-04-17T15:31:52.766Z,28.90
2023-04-17T15:34:20.856Z,29.02
2023-04-17T15:36:48.964Z,28.95
2023-04-17T15:39:17.376Z,28.67
2023-04-17T15:41:45.624Z,28.15
2023-04-17T15:44:13.699Z,28.36
2023-04-17T15:46:41.686Z,28.50
2023-04-17T15:49:09.695Z,28.58
2023-04-17T15:51:39.035Z,28.69
2023-04-17T15:54:11.967Z,28.29
2023-04-17T15:56:40.284Z,27.99
2023-04-17T15:59:08.280Z,28.40
2023-04-17T16:01:36.349Z,28.31
2023-04-17T16:04:04.461Z,27.56
2023-04-17T16:06:32.695Z,27.51
2023-04-17T16:09:01.194Z,27.35
2023-04-17T16:11:29.329Z,27.55
2023-04-17T16:13:57.386Z,27.38
2023-04-17T16:16:25.511Z,27.48
2023-04-17T16:18:53.478Z,27.67
2023-04-17T16:21:21.332Z,27.76
2023-04-17T16:23:49.705Z,27.56
2023-04-17T16:26:17.686Z,27.13
2023-04-17T16:28:46.497Z,27.42
2023-04-17T16:31:16.906Z,27.65
2023-04-17T16:33:45.423Z,27.64
2023-04-17T16:36:13.356Z,27.68
2023-04-17T16:38:41.312Z,27.31
2023-04-17T16:41:09.658Z,26.96
2023-04-17T16:43:37.642Z,27.09
2023-04-17T16:46:18.439Z,27.12
2023-04-17T16:48:50.963Z,27.22
2023-04-17T16:51:23.882Z,27.40
2023-04-17T16:53:51.917Z,26.93
2023-04-17T16:56:19.865Z,26.74
2023-04-17T16:58:47.713Z,26.50
2023-04-17T17:01:15.734Z,26.62
2023-04-17T17:03:44.956Z,27.00
2023-04-17T17:06:13.142Z,27.09
2023-04-17T17:08:47.633Z,27.43
2023-04-17T17:11:16.612Z,28.00
2023-04-17T17:13:48.720Z,28.10
2023-04-17T17:16:17.048Z,27.68
2023-04-17T17:18:45.620Z,27.62
2023-04-17T17:21:14.128Z,27.69
2023-04-17T17:23:42.173Z,27.41
2023-04-17T17:26:10.058Z,27.26
2023-04-17T17:28:38.395Z,26.97
2023-04-17T17:31:10.918Z,27.08
2023-04-17T17:33:38.826Z,26.89
2023-04-17T17:36:08.961Z,26.73
2023-04-17T17:38:36.864Z,26.85
2023-04-17T17:41:04.935Z,26.73
2023-04-17T17:43:33.471Z,26.84
2023-04-17T17:46:01.798Z,25.54
2023-04-17T17:48:29.983Z,25.47
2023-04-17T17:50:58.051Z,25.48
2023-04-17T17:53:27.207Z,25.39
2023-04-17T17:55:55.845Z,25.77
2023-04-17T17:58:23.860Z,26.11
2023-04-17T18:00:51.823Z,26.15
2023-04-17T18:03:20.783Z,25.88
2023-04-17T18:05:48.996Z,25.63
2023-04-17T18:08:17.122Z,25.48
2023-04-17T18:10:45.004Z,25.55
2023-04-17T18:13:12.928Z,25.60
2023-04-17T18:15:40.998Z,25.77
2023-04-17T18:18:09.190Z,25.84
2023-04-17T18:20:39.154Z,25.80
2023-04-17T18:23:07.302Z,25.80
2023-04-17T18:25:39.254Z,25.74
2023-04-17T18:28:07.576Z,25.71
2023-04-17T18:30:36.579Z,25.97
2023-04-17T18:33:05.041Z,26.06
2023-04-17T18:35:33.014Z,26.07
2023-04-17T18:38:01.138Z,26.21
2023-04-17T18:40:30.726Z,26.31
2023-04-17T18:42:58.671Z,26.01
2023-04-17T18:45:27.984Z,26.19
2023-04-17T18:47:56.189Z,26.41
2023-04-17T18:50:26.933Z,26.35
2023-04-17T18:52:57.260Z,26.26
2023-04-17T18:55:25.373Z,26.23
2023-04-17T18:57:53.572Z,26.02
2023-04-17T19:00:21.697Z,25.90
2023-04-17T19:02:50.133Z,25.24
2023-04-17T19:05:20.573Z,25.48
2023-04-17T19:07:49.141Z,25.63
2023-04-17T19:10:17.502Z,25.99
2023-04-17T19:12:46.806Z,26.08
2023-04-17T19:15:17.551Z,26.00
2023-04-17T19:17:45.787Z,25.75
2023-04-17T19:20:15.852Z,25.26
2023-04-17T19:22:43.816Z,25.70
2023-04-17T19:25:12.016Z,25.98
2023-04-17T19:27:40.394Z,26.03
2023-04-17T19:30:09.207Z,25.85
2023-04-17T19:32:40.131Z,25.79
2023-04-17T19:35:08.615Z,25.89
2023-04-17T19:37:36.710Z,25.88
2023-04-17T19:40:14.116Z,25.04
2023-04-17T19:42:49.774Z,24.96
2023-04-17T19:45:17.956Z,25.02
2023-04-17T19:47:46.212Z,25.51
2023-04-17T19:50:14.258Z,25.70
2023-04-17T19:52:43.359Z,25.82
2023-04-17T19:55:11.527Z,25.86
2023-04-17T19:57:41.620Z,25.61
2023-04-17T20:00:10.829Z,25.73
2023-04-17T20:02:41.956Z,25.68
2023-04-17T20:05:10.534Z,25.40
2023-04-17T20:07:39.084Z,25.28
2023-04-17T20:10:07.799Z,25.10
2023-04-17T20:12:36.157Z,25.00
2023-04-17T20:15:04.431Z,24.95
2023-04-17T20:17:32.512Z,25.23
2023-04-17T20:20:00.507Z,24.83
2023-04-17T20:22:28.380Z,24.75
2023-04-17T20:24:58.221Z,24.95
2023-04-17T20:27:26.612Z,24.25
2023-04-17T20:29:54.595Z,24.44
2023-04-17T20:32:23.288Z,24.21
2023-04-17T20:34:51.285Z,24.10
2023-04-17T20:37:19.920Z,24.28
2023-04-17T20:39:48.877Z,24.42
2023-04-17T20:42:16.917Z,25.06
2023-04-17T20:44:44.819Z,24.92
2023-04-17T20:47:12.717Z,25.14
2023-04-17T20:49:40.718Z,25.51
2023-04-17T20:52:08.682Z,25.50
2023-04-17T20:54:37.282Z,25.37
2023-04-17T20:57:05.389Z,25.50
2023-04-17T20:59:33.463Z,25.41
2023-04-17T21:02:01.472Z,25.52
2023-04-17T21:04:29.603Z,24.82
2023-04-17T21:06:57.730Z,24.71
2023-04-17T21:09:27.835Z,24.98
2023-04-17T21:11:55.795Z,24.79
2023-04-17T21:14:23.737Z,24.72
2023-04-17T21:16:54.517Z,24.22
2023-04-17T21:19:24.325Z,23.90
2023-04-17T21:21:55.696Z,23.71
2023-04-17T21:24:24.082Z,23.46
2023-04-17T21:26:58.264Z,23.96
2023-04-17T21:29:27.437Z,24.36
2023-04-17T21:31:55.792Z,24.15
2023-04-17T21:34:24.448Z,24.14
2023-04-17T21:36:54.887Z,24.14
2023-04-17T21:39:22.868Z,24.08
2023-04-17T21:41:50.793Z,23.91
2023-04-17T21:44:18.928Z,23.75
2023-04-17T21:46:46.971Z,23.76
2023-04-17T21:49:14.983Z,24.02
2023-04-17T21:51:42.932Z,23.62
2023-04-17T21:54:11.135Z,23.65
2023-04-17T21:56:39.162Z,23.63
2023-04-17T21:59:07.256Z,23.58
2023-04-17T22:01:35.230Z,23.68
2023-04-17T22:04:03.260Z,23.70
2023-04-17T22:06:35.295Z,23.72
2023-04-17T22:09:04.289Z,23.91
2023-04-17T22:11:32.521Z,23.32
2023-04-17T22:14:00.870Z,23.03
2023-04-17T22:16:29.295Z,23.20
2023-04-17T22:18:57.260Z,23.35
2023-04-17T22:21:27.069Z,23.68
2023-04-17T22:23:55.063Z,24.06
2023-04-17T22:26:22.950Z,23.87
2023-04-17T22:28:50.855Z,23.21
2023-04-17T22:31:18.802Z,23.86
2023-04-17T22:33:46.767Z,23.93
2023-04-17T22:36:14.746Z,23.98
2023-04-17T22:38:42.779Z,24.01
2023-04-17T22:41:10.955Z,23.85
2023-04-17T22:43:39.117Z,23.90
2023-04-17T22:46:07.079Z,23.54
2023-04-17T22:48:35.362Z,23.62
2023-04-17T22:51:03.814Z,23.80
2023-04-17T22:53:32.047Z,24.02
2023-04-17T22:56:03.773Z,23.95
2023-04-17T22:58:33.496Z,23.69
2023-04-17T23:01:01.521Z,23.44
2023-04-17T23:03:29.933Z,23.50
2023-04-17T23:05:57.866Z,23.63
2023-04-17T23:08:25.944Z,23.73
2023-04-17T23:10:58.789Z,23.65
2023-04-17T23:13:27.714Z,23.58
2023-04-17T23:15:55.720Z,23.47
2023-04-17T23:18:23.742Z,23.54
2023-04-17T23:20:51.640Z,23.62
2023-04-17T23:23:23.631Z,23.73
2023-04-17T23:25:52.221Z,23.47
2023-04-17T23:28:20.623Z,23.16
2023-04-17T23:30:48.612Z,22.98
2023-04-17T23:33:17.012Z,22.89
2023-04-17T23:35:45.087Z,23.50
2023-04-17T23:38:12.965Z,23.43
2023-04-17T23:40:41.588Z,23.37
2023-04-17T23:43:09.544Z,23.35
2023-04-17T23:45:37.551Z,22.96
2023-04-17T23:48:06.337Z,22.93
2023-04-17T23:50:34.412Z,22.70
2023-04-17T23:55:17.769Z,19.67
2023-04-17T23:57:45.952Z,21.74
